Time;durP1;ratioP1;P1;durP2;ratioP2;P2;SDS_P1;SDS_P2;PMS_P1;PMS_P2;Temp;Humidity;BMP_temperature;BMP_pressure;BME280_temperature;BME280_humidity;BME280_pressure;Samples;Min_cycle;Max_cycle;Signal;HPM_P1;HPM_P2
2023/10/04 00:01:10;;;;;;;12.30;2.53;;;;;;;;;;5071848;28;20040;-59
2023/10/04 00:03:38;;;;;;;14.18;2.53;;;;;;;;;;5071662;28;20081;-59
2023/10/04 00:06:04;;;;;;;19.10;2.90;;;;;;;;;;5066632;28;20112;-59
2023/10/04 00:08:30;;;;;;;13.32;2.72;;;;;;;;;;5071253;28;20132;-59
2023/10/04 00:10:56;;;;;;;13.13;2.60;;;;;;;;;;5072978;28;20058;-59
2023/10/04 00:13:23;;;;;;;17.02;2.53;;;;;;;;;;5073279;28;20120;-59
2023/10/04 00:15:49;;;;;;;23.30;3.10;;;;;;;;;;5080878;28;20124;-59
2023/10/04 00:18:15;;;;;;;14.98;2.45;;;;;;;;;;5076750;28;20139;-59
2023/10/04 00:20:43;;;;;;;14.50;2.88;;;;;;;;;;5080610;28;20051;-59
2023/10/04 00:23:10;;;;;;;16.17;2.63;;;;;;;;;;5075699;28;20044;-59
2023/10/04 00:25:38;;;;;;;14.55;2.63;;;;;;;;;;5076921;28;20040;-59
2023/10/04 00:28:04;;;;;;;17.15;2.88;;;;;;;;;;5079372;28;20063;-58
2023/10/04 00:30:31;;;;;;;16.70;2.50;;;;;;;;;;5074916;28;20049;-59
2023/10/04 00:32:58;;;;;;;14.98;2.90;;;;;;;;;;5079693;28;20043;-59
2023/10/04 00:35:28;;;;;;;11.70;2.38;;;;;;;;;;5075606;28;20048;-59
2023/10/04 00:37:59;;;;;;;16.27;3.30;;;;;;;;;;5076791;28;20039;-59
2023/10/04 00:40:27;;;;;;;11.30;2.13;;;;;;;;;;5077947;28;20052;-59
2023/10/04 00:42:55;;;;;;;15.80;2.38;;;;;;;;;;5077132;28;20381;-59
2023/10/04 00:45:24;;;;;;;15.43;3.08;;;;;;;;;;5075972;28;21834;-59
2023/10/04 00:47:52;;;;;;;15.60;2.72;;;;;;;;;;5073365;28;20399;-59
2023/10/04 00:50:26;;;;;;;16.67;2.67;;;;;;;;;;5077388;28;20397;-59
2023/10/04 00:53:12;;;;;;;11.63;2.97;;;;;;;;;;5076701;28;20044;-59
2023/10/04 00:55:49;;;;;;;22.25;3.55;;;;;;;;;;5074634;28;20120;-59
2023/10/04 00:58:19;;;;;;;14.55;2.75;;;;;;;;;;5076597;28;20037;-59
2023/10/04 01:00:47;;;;;;;15.02;3.17;;;;;;;;;;5073510;28;20484;-59
2023/10/04 01:03:20;;;;;;;11.98;2.80;;;;;;;;;;5074993;28;20094;-59
2023/10/04 01:05:47;;;;;;;14.68;2.40;;;;;;;;;;5078358;28;20095;-59
2023/10/04 01:08:20;;;;;;;16.90;2.70;;;;;;;;;;5076597;28;20072;-59
2023/10/04 01:10:47;;;;;;;16.85;2.78;;;;;;;;;;5076937;28;20049;-59
2023/10/04 01:13:17;;;;;;;17.65;4.45;;;;;;;;;;5077293;28;20072;-59
2023/10/04 01:15:44;;;;;;;16.92;2.88;;;;;;;;;;5075103;28;20052;-59
2023/10/04 01:18:11;;;;;;;15.20;2.95;;;;;;;;;;5075729;28;20458;-59
2023/10/04 01:20:39;;;;;;;12.85;2.42;;;;;;;;;;5072994;28;20060;-59
2023/10/04 01:23:06;;;;;;;12.55;2.85;;;;;;;;;;5075090;28;20063;-58
2023/10/04 01:25:36;;;;;;;16.38;2.90;;;;;;;;;;5060202;28;20496;-59
2023/10/04 01:28:12;;;;;;;18.10;2.38;;;;;;;;;;5062864;28;20072;-59
2023/10/04 01:30:39;;;;;;;12.85;2.92;;;;;;;;;;5083250;28;20035;-59
2023/10/04 01:33:07;;;;;;;13.50;2.80;;;;;;;;;;5073044;28;20051;-59
2023/10/04 01:35:33;;;;;;;22.13;4.35;;;;;;;;;;5079338;28;20522;-59
2023/10/04 01:38:00;;;;;;;17.15;3.47;;;;;;;;;;5083731;28;20059;-59
2023/10/04 01:40:28;;;;;;;10.65;2.40;;;;;;;;;;5069459;28;20051;-59
2023/10/04 01:42:55;;;;;;;15.13;2.63;;;;;;;;;;5072897;28;20158;-59
2023/10/04 01:45:22;;;;;;;12.60;2.92;;;;;;;;;;5080105;28;20056;-59
2023/10/04 01:47:51;;;;;;;15.50;3.30;;;;;;;;;;5087141;28;22028;-59
2023/10/04 01:50:20;;;;;;;12.70;2.63;;;;;;;;;;5082989;28;20569;-59
2023/10/04 01:52:47;;;;;;;13.05;2.53;;;;;;;;;;5071939;28;20557;-59
2023/10/04 01:55:16;;;;;;;13.48;2.63;;;;;;;;;;5068466;28;20050;-59
2023/10/04 01:57:43;;;;;;;15.93;3.75;;;;;;;;;;5066989;28;20098;-59
2023/10/04 02:00:10;;;;;;;14.88;2.78;;;;;;;;;;5069507;28;20040;-59
2023/10/04 02:02:38;;;;;;;12.75;2.70;;;;;;;;;;5069813;28;20091;-59
2023/10/04 02:05:05;;;;;;;13.27;3.00;;;;;;;;;;5071456;28;20055;-59
2023/10/04 02:07:32;;;;;;;17.38;3.35;;;;;;;;;;5071417;28;20089;-59
2023/10/04 02:09:59;;;;;;;20.58;2.70;;;;;;;;;;5074776;28;20149;-59
2023/10/04 02:12:25;;;;;;;13.82;2.63;;;;;;;;;;5070682;28;20028;-59
2023/10/04 02:14:53;;;;;;;19.02;2.95;;;;;;;;;;5070295;28;20048;-59
2023/10/04 02:17:20;;;;;;;11.43;2.30;;;;;;;;;;5070636;28;20098;-59
2023/10/04 02:19:46;;;;;;;19.92;3.78;;;;;;;;;;5069487;28;20504;-59
2023/10/04 02:22:13;;;;;;;17.05;2.85;;;;;;;;;;5068813;28;20037;-59
2023/10/04 02:24:39;;;;;;;17.73;3.03;;;;;;;;;;5069078;28;20136;-59
2023/10/04 02:27:09;;;;;;;21.55;3.53;;;;;;;;;;5062182;28;20048;-59
2023/10/04 02:29:38;;;;;;;21.13;3.20;;;;;;;;;;5070216;28;20139;-59
2023/10/04 02:32:11;;;;;;;16.83;2.85;;;;;;;;;;5075787;28;20510;-59
2023/10/04 02:34:44;;;;;;;17.75;2.45;;;;;;;;;;5072512;28;20091;-59
2023/10/04 02:37:11;;;;;;;19.00;3.37;;;;;;;;;;5075166;28;21065;-59
2023/10/04 02:39:37;;;;;;;12.20;2.20;;;;;;;;;;5074816;28;20526;-59
2023/10/04 02:42:09;;;;;;;15.57;2.47;;;;;;;;;;5072673;28;20293;-59
2023/10/04 02:44:39;;;;;;;12.23;2.88;;;;;;;;;;5075292;28;20055;-59
2023/10/04 02:47:09;;;;;;;13.77;3.25;;;;;;;;;;5072161;28;20201;-59
2023/10/04 02:49:39;;;;;;;13.85;2.72;;;;;;;;;;5076107;28;20518;-59
2023/10/04 02:52:07;;;;;;;14.18;2.67;;;;;;;;;;5074445;28;20048;-59
2023/10/04 02:54:34;;;;;;;15.15;2.80;;;;;;;;;;5073597;28;20062;-59
2023/10/04 02:57:03;;;;;;;10.18;2.40;;;;;;;;;;5073476;28;20052;-59
2023/10/04 02:59:32;;;;;;;12.48;3.20;;;;;;;;;;5073539;28;20052;-59
2023/10/04 03:01:58;;;;;;;13.18;3.13;;;;;;;;;;5075106;28;20424;-59
2023/10/04 03:04:25;;;;;;;14.50;2.97;;;;;;;;;;5074934;28;20511;-59
2023/10/04 03:06:52;;;;;;;14.85;3.55;;;;;;;;;;5079808;28;20078;-59
2023/10/04 03:09:18;;;;;;;22.77;3.20;;;;;;;;;;5075103;28;20048;-59
2023/10/04 03:11:45;;;;;;;15.07;2.53;;;;;;;;;;5074187;28;20352;-59
2023/10/04 03:14:15;;;;;;;13.07;2.65;;;;;;;;;;5072456;28;20048;-59
2023/10/04 03:16:42;;;;;;;11.35;2.53;;;;;;;;;;5073927;28;20048;-59
2023/10/04 03:19:11;;;;;;;19.10;3.10;;;;;;;;;;5074809;28;20075;-59
2023/10/04 03:21:44;;;;;;;19.08;2.80;;;;;;;;;;5070072;28;20048;-59
2023/10/04 03:24:11;;;;;;;9.15;2.47;;;;;;;;;;5082403;28;20428;-59
2023/10/04 03:26:38;;;;;;;14.48;3.13;;;;;;;;;;5075065;28;20039;-59
2023/10/04 03:29:07;;;;;;;20.20;3.90;;;;;;;;;;5072063;28;20063;-59
2023/10/04 03:31:34;;;;;;;17.95;3.03;;;;;;;;;;5068932;28;20085;-59
2023/10/04 03:34:00;;;;;;;11.05;2.58;;;;;;;;;;5074975;28;20544;-59
2023/10/04 03:36:29;;;;;;;11.40;2.80;;;;;;;;;;5070155;28;20853;-59
2023/10/04 03:38:55;;;;;;;19.30;3.30;;;;;;;;;;5065653;28;20064;-59
2023/10/04 03:41:21;;;;;;;22.80;3.70;;;;;;;;;;5071345;28;20056;-59
2023/10/04 03:43:47;;;;;;;15.02;3.60;;;;;;;;;;5067744;28;20599;-59
2023/10/04 03:46:22;;;;;;;10.73;2.88;;;;;;;;;;5072912;28;20123;-59
2023/10/04 03:48:51;;;;;;;14.40;2.97;;;;;;;;;;5068801;28;20412;-59
2023/10/04 03:51:21;;;;;;;15.73;2.95;;;;;;;;;;5071406;28;20052;-59
2023/10/04 03:53:49;;;;;;;18.02;2.85;;;;;;;;;;5071225;28;20193;-59
2023/10/04 03:56:17;;;;;;;20.17;3.55;;;;;;;;;;5067559;28;20048;-59
2023/10/04 03:58:43;;;;;;;14.95;3.70;;;;;;;;;;5070465;28;20045;-59
2023/10/04 04:01:10;;;;;;;13.00;3.50;;;;;;;;;;5067802;28;20056;-59
2023/10/04 04:03:36;;;;;;;13.35;2.95;;;;;;;;;;5069562;28;20037;-59
2023/10/04 04:06:04;;;;;;;15.07;2.45;;;;;;;;;;5069868;28;20091;-59
2023/10/04 04:08:30;;;;;;;18.58;4.15;;;;;;;;;;5070828;28;20059;-59
2023/10/04 04:10:56;;;;;;;12.30;2.42;;;;;;;;;;5073911;28;20040;-59
2023/10/04 04:13:23;;;;;;;14.90;2.92;;;;;;;;;;5073675;28;20087;-59
2023/10/04 04:15:51;;;;;;;13.18;3.50;;;;;;;;;;5073514;28;20052;-59
2023/10/04 04:18:21;;;;;;;16.80;3.22;;;;;;;;;;5070514;28;20044;-59
2023/10/04 04:20:50;;;;;;;11.93;2.92;;;;;;;;;;5071057;28;20058;-59
2023/10/04 04:23:17;;;;;;;18.40;2.97;;;;;;;;;;5074779;28;20574;-59
2023/10/04 04:25:45;;;;;;;16.20;3.15;;;;;;;;;;5068374;28;20040;-59
2023/10/04 04:28:13;;;;;;;12.43;3.72;;;;;;;;;;5068003;28;20525;-59
2023/10/04 04:30:39;;;;;;;19.38;3.45;;;;;;;;;;5073182;28;20412;-59
2023/10/04 04:33:07;;;;;;;9.68;3.30;;;;;;;;;;5072110;28;20448;-59
2023/10/04 04:38:13;;;;;;;14.52;2.97;;;;;;;;;;5070087;28;20404;-59
2023/10/04 04:40:44;;;;;;;16.00;3.33;;;;;;;;;;5068372;28;20055;-59
2023/10/04 04:45:51;;;;;;;16.40;3.13;;;;;;;;;;5073931;28;20043;-58
2023/10/04 04:48:18;;;;;;;16.20;4.00;;;;;;;;;;5069112;28;20045;-58
2023/10/04 04:50:45;;;;;;;15.07;2.85;;;;;;;;;;5085281;28;20086;-58
2023/10/04 04:53:14;;;;;;;12.95;2.92;;;;;;;;;;5076250;28;20044;-59
2023/10/04 04:55:50;;;;;;;17.13;3.00;;;;;;;;;;5066863;28;20464;-59
2023/10/04 04:58:20;;;;;;;13.05;3.10;;;;;;;;;;5071343;28;20041;-59
2023/10/04 05:00:50;;;;;;;18.55;3.13;;;;;;;;;;5069247;28;20120;-59
2023/10/04 05:03:19;;;;;;;17.98;3.75;;;;;;;;;;5072730;28;20045;-59
2023/10/04 05:05:49;;;;;;;16.83;2.53;;;;;;;;;;5080994;28;20044;-60
2023/10/04 05:08:15;;;;;;;15.77;3.05;;;;;;;;;;5078287;28;20063;-59
2023/10/04 05:10:44;;;;;;;15.82;2.92;;;;;;;;;;5071471;28;20515;-59
2023/10/04 05:13:13;;;;;;;17.73;4.22;;;;;;;;;;5063009;28;20044;-59
2023/10/04 05:15:42;;;;;;;11.98;2.65;;;;;;;;;;5067056;28;20067;-58
2023/10/04 05:18:11;;;;;;;11.23;2.15;;;;;;;;;;5068225;28;20130;-59
2023/10/04 05:20:38;;;;;;;10.65;2.88;;;;;;;;;;5068201;28;20373;-59
2023/10/04 05:23:05;;;;;;;10.95;3.13;;;;;;;;;;5066136;28;20475;-58
2023/10/04 05:25:32;;;;;;;10.73;2.50;;;;;;;;;;5065661;28;20041;-58
2023/10/04 05:28:09;;;;;;;20.35;4.07;;;;;;;;;;5065830;28;20085;-58
2023/10/04 05:30:39;;;;;;;13.70;3.17;;;;;;;;;;5065867;28;20330;-59
2023/10/04 05:33:08;;;;;;;13.50;3.15;;;;;;;;;;5071474;28;20049;-58
2023/10/04 05:35:38;;;;;;;15.10;3.55;;;;;;;;;;5070390;28;20467;-59
2023/10/04 05:38:05;;;;;;;14.48;3.35;;;;;;;;;;5074408;28;20103;-59
2023/10/04 05:40:43;;;;;;;13.70;3.90;;;;;;;;;;5079170;28;20040;-58
2023/10/04 05:43:09;;;;;;;12.68;2.70;;;;;;;;;;5062824;28;20056;-58
2023/10/04 05:45:36;;;;;;;13.88;2.88;;;;;;;;;;5086428;28;20088;-58
2023/10/04 05:48:05;;;;;;;13.10;3.35;;;;;;;;;;5085717;28;20092;-58
2023/10/04 05:50:34;;;;;;;11.02;2.72;;;;;;;;;;5075657;28;20773;-58
2023/10/04 05:53:05;;;;;;;16.30;3.55;;;;;;;;;;5088015;28;20170;-58
2023/10/04 05:55:32;;;;;;;12.13;3.00;;;;;;;;;;5083853;28;20052;-58
2023/10/04 05:57:58;;;;;;;13.82;2.75;;;;;;;;;;5091942;28;20062;-59
2023/10/04 06:00:26;;;;;;;10.43;3.08;;;;;;;;;;5092801;28;20072;-58
2023/10/04 06:02:56;;;;;;;12.45;3.63;;;;;;;;;;5089748;28;20404;-58
2023/10/04 06:05:23;;;;;;;18.45;3.55;;;;;;;;;;5080458;28;20124;-59
2023/10/04 06:07:54;;;;;;;17.17;4.30;;;;;;;;;;5092488;28;20052;-59
2023/10/04 06:10:20;;;;;;;15.85;3.30;;;;;;;;;;5087039;28;20518;-59
2023/10/04 06:12:47;;;;;;;16.92;4.22;;;;;;;;;;5073265;28;20090;-59
2023/10/04 06:15:16;;;;;;;16.13;3.40;;;;;;;;;;5068569;28;20052;-59
2023/10/04 06:17:44;;;;;;;15.88;3.85;;;;;;;;;;5070647;28;20083;-59
2023/10/04 06:20:32;;;;;;;14.52;3.63;;;;;;;;;;5089946;28;20028;-59
2023/10/04 06:23:05;;;;;;;15.13;4.10;;;;;;;;;;5066796;28;20122;-59
2023/10/04 06:25:32;;;;;;;23.08;4.22;;;;;;;;;;5065761;28;20032;-59
2023/10/04 06:27:59;;;;;;;15.10;3.55;;;;;;;;;;5092177;28;20106;-59
2023/10/04 06:30:26;;;;;;;15.00;3.20;;;;;;;;;;5091767;28;20047;-59
2023/10/04 06:32:56;;;;;;;14.05;3.50;;;;;;;;;;5086911;28;20373;-59
2023/10/04 06:35:24;;;;;;;15.75;4.53;;;;;;;;;;5089890;28;20083;-59
2023/10/04 06:37:53;;;;;;;14.68;3.28;;;;;;;;;;5091600;28;20044;-59
2023/10/04 06:40:20;;;;;;;16.33;3.60;;;;;;;;;;5091110;28;20136;-59
2023/10/04 06:42:48;;;;;;;15.35;3.53;;;;;;;;;;5080592;28;20068;-59
2023/10/04 06:45:18;;;;;;;19.02;3.85;;;;;;;;;;5072330;28;20093;-59
2023/10/04 06:47:45;;;;;;;17.95;4.05;;;;;;;;;;5082771;28;20040;-59
2023/10/04 06:50:15;;;;;;;17.90;4.63;;;;;;;;;;5091511;28;20476;-60
2023/10/04 06:52:45;;;;;;;19.75;3.78;;;;;;;;;;5089787;28;20044;-59
2023/10/04 06:55:12;;;;;;;14.52;4.20;;;;;;;;;;5077519;28;20092;-59
2023/10/04 06:57:43;;;;;;;19.95;4.10;;;;;;;;;;5084466;28;20036;-59
2023/10/04 07:00:14;;;;;;;13.68;4.07;;;;;;;;;;5071179;28;20169;-59
2023/10/04 07:02:44;;;;;;;18.38;5.35;;;;;;;;;;5070567;28;20045;-58
2023/10/04 07:05:14;;;;;;;14.70;4.78;;;;;;;;;;5068970;28;20480;-58
2023/10/04 07:07:44;;;;;;;11.85;3.08;;;;;;;;;;5069192;28;20052;-59
2023/10/04 07:10:14;;;;;;;18.58;4.18;;;;;;;;;;5071164;28;20370;-59
2023/10/04 07:12:41;;;;;;;18.98;3.67;;;;;;;;;;5070560;28;20085;-59
2023/10/04 07:15:08;;;;;;;18.90;5.53;;;;;;;;;;5067083;28;20676;-59
2023/10/04 07:17:34;;;;;;;19.58;4.40;;;;;;;;;;5069575;28;20046;-59
2023/10/04 07:20:00;;;;;;;15.50;4.70;;;;;;;;;;5070874;28;20044;-59
2023/10/04 07:22:29;;;;;;;20.80;4.97;;;;;;;;;;5070031;28;20404;-59
2023/10/04 07:24:57;;;;;;;21.35;5.25;;;;;;;;;;5066388;28;20044;-59
2023/10/04 07:27:24;;;;;;;14.48;3.53;;;;;;;;;;5079006;28;20495;-60
2023/10/04 07:29:50;;;;;;;17.67;3.92;;;;;;;;;;5090588;28;20047;-59
2023/10/04 07:32:17;;;;;;;12.63;3.95;;;;;;;;;;5083724;28;20404;-59
2023/10/04 07:34:43;;;;;;;17.00;3.90;;;;;;;;;;5077041;28;20446;-59
2023/10/04 07:37:09;;;;;;;15.88;4.30;;;;;;;;;;5089025;28;20131;-59
2023/10/04 07:39:35;;;;;;;15.60;4.40;;;;;;;;;;5090676;28;20387;-59
2023/10/04 07:42:02;;;;;;;13.95;3.90;;;;;;;;;;5086561;28;20071;-59
2023/10/04 07:44:30;;;;;;;18.42;4.05;;;;;;;;;;5076506;28;20036;-59
2023/10/04 07:46:59;;;;;;;14.63;4.22;;;;;;;;;;5086048;28;20040;-59
2023/10/04 07:49:26;;;;;;;19.55;5.43;;;;;;;;;;5068368;28;20042;-59
2023/10/04 07:51:52;;;;;;;15.15;4.53;;;;;;;;;;5066886;28;20112;-59
2023/10/04 07:54:19;;;;;;;16.30;3.75;;;;;;;;;;5069644;28;20041;-59
2023/10/04 07:56:46;;;;;;;13.93;4.05;;;;;;;;;;5068455;28;20049;-59
2023/10/04 07:59:12;;;;;;;16.42;3.97;;;;;;;;;;5081399;28;20479;-59
2023/10/04 08:01:39;;;;;;;19.05;5.20;;;;;;;;;;5089094;28;20541;-59
2023/10/04 08:04:08;;;;;;;16.83;5.15;;;;;;;;;;5090222;28;20044;-59
2023/10/04 08:06:35;;;;;;;19.42;5.00;;;;;;;;;;5080084;28;20052;-59
2023/10/04 08:09:04;;;;;;;22.67;4.68;;;;;;;;;;5070186;28;20052;-59
2023/10/04 08:11:33;;;;;;;17.17;5.32;;;;;;;;;;5070526;28;20554;-59
2023/10/04 08:13:59;;;;;;;21.00;5.07;;;;;;;;;;5064773;28;20057;-59
2023/10/04 08:16:27;;;;;;;13.45;5.82;;;;;;;;;;5064159;28;20040;-59
2023/10/04 08:18:55;;;;;;;16.27;4.45;;;;;;;;;;5082188;28;20040;-59
2023/10/04 08:21:22;;;;;;;20.98;4.82;;;;;;;;;;5090397;28;20044;-59
2023/10/04 08:23:49;;;;;;;15.52;4.30;;;;;;;;;;5088019;28;20068;-59
2023/10/04 08:26:16;;;;;;;17.05;4.50;;;;;;;;;;5077783;28;20044;-59
2023/10/04 08:28:42;;;;;;;17.33;4.07;;;;;;;;;;5087889;28;20101;-60
2023/10/04 08:31:16;;;;;;;21.45;4.47;;;;;;;;;;5090284;28;20127;-60
2023/10/04 08:33:45;;;;;;;19.80;4.88;;;;;;;;;;5082193;28;20032;-59
2023/10/04 08:36:15;;;;;;;26.40;5.55;;;;;;;;;;5082301;28;20056;-60
2023/10/04 08:38:42;;;;;;;15.38;4.47;;;;;;;;;;5091612;28;20131;-60
2023/10/04 08:41:08;;;;;;;17.52;5.03;;;;;;;;;;5093898;28;20048;-59
2023/10/04 08:43:36;;;;;;;15.43;4.50;;;;;;;;;;5084976;28;20068;-59
2023/10/04 08:46:02;;;;;;;17.67;4.72;;;;;;;;;;5092189;28;20548;-60
2023/10/04 08:48:29;;;;;;;17.05;4.63;;;;;;;;;;5092391;28;20039;-59
2023/10/04 08:51:00;;;;;;;12.40;4.55;;;;;;;;;;5087863;28;20452;-59
2023/10/04 08:53:26;;;;;;;13.52;4.10;;;;;;;;;;5086291;28;20033;-60
2023/10/04 08:55:55;;;;;;;14.27;3.95;;;;;;;;;;5092734;28;20040;-59
2023/10/04 08:58:21;;;;;;;13.77;4.10;;;;;;;;;;5093493;28;20048;-59
2023/10/04 09:00:50;;;;;;;12.05;3.97;;;;;;;;;;5084026;28;20043;-60
2023/10/04 09:03:16;;;;;;;17.35;4.65;;;;;;;;;;5083357;28;20062;-60
2023/10/04 09:05:46;;;;;;;15.18;4.43;;;;;;;;;;5093546;28;20328;-59
2023/10/04 09:08:14;;;;;;;18.92;5.13;;;;;;;;;;5093246;28;20130;-60
2023/10/04 09:10:41;;;;;;;15.95;4.65;;;;;;;;;;5084429;28;20076;-60
2023/10/04 09:13:09;;;;;;;15.10;4.38;;;;;;;;;;5065925;28;20103;-59
2023/10/04 09:15:35;;;;;;;18.25;6.30;;;;;;;;;;5092733;28;20135;-60
2023/10/04 09:18:03;;;;;;;16.45;3.92;;;;;;;;;;5065245;28;20068;-60
2023/10/04 09:20:31;;;;;;;15.68;4.25;;;;;;;;;;5086267;28;20033;-59
2023/10/04 09:23:00;;;;;;;12.65;3.92;;;;;;;;;;5089918;28;20044;-59
2023/10/04 09:25:40;;;;;;;13.43;4.47;;;;;;;;;;5093007;28;20040;-60
2023/10/04 09:28:09;;;;;;;17.17;4.28;;;;;;;;;;5092861;28;20123;-60
2023/10/04 09:30:39;;;;;;;18.35;5.13;;;;;;;;;;5084187;28;20041;-60
2023/10/04 09:33:05;;;;;;;23.52;5.47;;;;;;;;;;5085580;28;20048;-60
2023/10/04 09:35:45;;;;;;;15.38;4.78;;;;;;;;;;5092444;28;20457;-60
2023/10/04 09:38:15;;;;;;;16.73;4.65;;;;;;;;;;5084425;28;20048;-59
2023/10/04 09:41:10;;;;;;;15.25;4.80;;;;;;;;;;5092586;28;20048;-60
2023/10/04 09:43:37;;;;;;;17.63;4.80;;;;;;;;;;5059332;28;20156;-60
2023/10/04 09:46:09;;;;;;;17.27;4.65;;;;;;;;;;5085809;28;20132;-60
2023/10/04 09:48:41;;;;;;;14.25;4.50;;;;;;;;;;5077078;28;20045;-60
2023/10/04 09:51:09;;;;;;;15.15;5.05;;;;;;;;;;5084341;28;20048;-59
2023/10/04 09:53:39;;;;;;;21.75;5.90;;;;;;;;;;5086535;28;20125;-59
2023/10/04 09:56:06;;;;;;;15.70;4.80;;;;;;;;;;5092536;28;20052;-59
2023/10/04 09:58:33;;;;;;;14.90;5.35;;;;;;;;;;5081179;28;20041;-59
2023/10/04 10:01:06;;;;;;;17.13;5.35;;;;;;;;;;5089119;28;20119;-59
2023/10/04 10:03:36;;;;;;;17.27;6.53;;;;;;;;;;5084025;28;20040;-59
2023/10/04 10:06:03;;;;;;;17.70;5.53;;;;;;;;;;5092342;28;20052;-59
2023/10/04 10:08:32;;;;;;;15.95;4.45;;;;;;;;;;5082902;28;20079;-59
2023/10/04 10:11:00;;;;;;;18.85;4.85;;;;;;;;;;5087561;28;20438;-59
2023/10/04 10:13:27;;;;;;;15.48;5.47;;;;;;;;;;5081752;28;20109;-59
2023/10/04 10:15:53;;;;;;;14.82;4.93;;;;;;;;;;5091931;28;20342;-59
2023/10/04 10:18:21;;;;;;;21.25;4.55;;;;;;;;;;5084349;28;20508;-59
2023/10/04 10:20:47;;;;;;;20.25;6.32;;;;;;;;;;5074529;28;20040;-59
2023/10/04 10:23:14;;;;;;;15.02;4.97;;;;;;;;;;5076462;28;20487;-59
2023/10/04 10:25:41;;;;;;;14.18;4.90;;;;;;;;;;5091311;28;20055;-59
2023/10/04 10:28:21;;;;;;;19.15;5.75;;;;;;;;;;5086931;28;20103;-59
2023/10/04 10:30:47;;;;;;;16.08;4.93;;;;;;;;;;5092036;28;20398;-59
2023/10/04 10:33:13;;;;;;;15.85;4.82;;;;;;;;;;5086255;28;20132;-59
2023/10/04 10:35:49;;;;;;;14.95;4.80;;;;;;;;;;5090352;28;20149;-60
2023/10/04 10:38:28;;;;;;;17.38;4.93;;;;;;;;;;5079384;28;20134;-60
2023/10/04 10:40:54;;;;;;;15.73;5.00;;;;;;;;;;5058548;28;20392;-60
2023/10/04 10:43:20;;;;;;;14.18;4.10;;;;;;;;;;5079011;28;20100;-60
2023/10/04 10:45:46;;;;;;;16.67;4.32;;;;;;;;;;5091297;28;20032;-60
2023/10/04 10:48:13;;;;;;;16.52;4.60;;;;;;;;;;5087557;28;20450;-59
2023/10/04 10:50:40;;;;;;;13.60;4.35;;;;;;;;;;5070525;28;20036;-59
2023/10/04 10:53:09;;;;;;;14.77;4.65;;;;;;;;;;5078772;28;20071;-59
2023/10/04 10:55:35;;;;;;;15.70;4.53;;;;;;;;;;5067836;28;20051;-59
2023/10/04 10:58:02;;;;;;;12.07;4.28;;;;;;;;;;5072734;28;20045;-59
2023/10/04 11:00:34;;;;;;;18.88;5.05;;;;;;;;;;5072853;28;20040;-59
2023/10/04 11:03:01;;;;;;;19.20;4.32;;;;;;;;;;5071873;28;20045;-59
2023/10/04 11:05:27;;;;;;;12.80;4.82;;;;;;;;;;5066547;28;20036;-59
2023/10/04 11:07:54;;;;;;;13.15;4.32;;;;;;;;;;5062512;28;20089;-60
2023/10/04 11:10:23;;;;;;;16.40;4.93;;;;;;;;;;5090993;28;20521;-60
2023/10/04 11:12:58;;;;;;;17.00;4.63;;;;;;;;;;5091163;28;20044;-59
2023/10/04 11:15:27;;;;;;;19.92;4.40;;;;;;;;;;5074689;28;20044;-59
2023/10/04 11:17:54;;;;;;;14.55;4.53;;;;;;;;;;5089100;28;20048;-60
2023/10/04 11:20:23;;;;;;;13.05;4.80;;;;;;;;;;5091151;28;20528;-59
2023/10/04 11:22:50;;;;;;;14.77;4.35;;;;;;;;;;5090354;28;20046;-59
2023/10/04 11:25:18;;;;;;;11.52;4.60;;;;;;;;;;5082005;28;20040;-59
2023/10/04 11:27:46;;;;;;;13.55;4.90;;;;;;;;;;5089670;28;20179;-59
2023/10/04 11:30:26;;;;;;;18.90;3.90;;;;;;;;;;5090713;28;20088;-60
2023/10/04 11:32:52;;;;;;;12.85;4.40;;;;;;;;;;5090804;28;20048;-59
2023/10/04 11:35:19;;;;;;;12.73;4.50;;;;;;;;;;5079275;28;20113;-59
2023/10/04 11:37:46;;;;;;;13.88;3.95;;;;;;;;;;5091115;28;20123;-60
2023/10/04 11:40:13;;;;;;;11.48;4.00;;;;;;;;;;5090689;28;20122;-59
2023/10/04 11:42:40;;;;;;;12.73;3.50;;;;;;;;;;5090455;28;20044;-60
2023/10/04 11:45:18;;;;;;;10.88;3.25;;;;;;;;;;5078410;28;20452;-59
2023/10/04 11:47:45;;;;;;;11.55;3.10;;;;;;;;;;5090768;28;20091;-59
2023/10/04 11:50:13;;;;;;;12.10;3.65;;;;;;;;;;5090045;28;20059;-59
2023/10/04 11:52:40;;;;;;;10.57;3.20;;;;;;;;;;5090664;28;20051;-59
2023/10/04 11:55:24;;;;;;;12.57;3.80;;;;;;;;;;5081778;28;20048;-60
2023/10/04 11:57:51;;;;;;;15.02;3.35;;;;;;;;;;5064415;28;20089;-59
2023/10/04 12:00:18;;;;;;;20.75;3.88;;;;;;;;;;5090346;28;20044;-59
2023/10/04 12:02:45;;;;;;;18.10;3.47;;;;;;;;;;5089555;28;20371;-59
2023/10/04 12:05:14;;;;;;;14.63;3.38;;;;;;;;;;5079328;28;20144;-59
2023/10/04 12:07:40;;;;;;;9.73;2.75;;;;;;;;;;5073467;28;20126;-59
2023/10/04 12:10:09;;;;;;;13.25;3.15;;;;;;;;;;5092753;28;20047;-59
2023/10/04 12:12:37;;;;;;;14.27;3.60;;;;;;;;;;5094582;28;20036;-59
2023/10/04 12:15:07;;;;;;;9.57;3.03;;;;;;;;;;5083510;28;20055;-59
2023/10/04 12:17:34;;;;;;;13.10;3.47;;;;;;;;;;5088857;28;20044;-59
2023/10/04 12:20:04;;;;;;;12.98;3.50;;;;;;;;;;5094521;28;20040;-59
2023/10/04 12:22:31;;;;;;;9.20;2.95;;;;;;;;;;5094485;28;20109;-59
2023/10/04 12:24:59;;;;;;;10.25;2.65;;;;;;;;;;5082124;28;20071;-59
2023/10/04 12:27:27;;;;;;;12.55;2.60;;;;;;;;;;5082606;28;20795;-60
2023/10/04 12:29:53;;;;;;;10.35;2.45;;;;;;;;;;5094257;28;20051;-59
2023/10/04 12:32:19;;;;;;;8.45;2.28;;;;;;;;;;5093873;28;20040;-59
2023/10/04 12:34:46;;;;;;;14.73;2.72;;;;;;;;;;5080673;28;20550;-59
2023/10/04 12:37:12;;;;;;;14.90;2.90;;;;;;;;;;5092581;28;20526;-59
2023/10/04 12:39:39;;;;;;;13.80;4.60;;;;;;;;;;5093709;28;20044;-59
2023/10/04 12:42:06;;;;;;;10.88;3.40;;;;;;;;;;5093850;28;20043;-60
2023/10/04 12:44:32;;;;;;;11.98;3.10;;;;;;;;;;5083428;28;20068;-59
2023/10/04 12:46:58;;;;;;;13.38;2.78;;;;;;;;;;5079484;28;20170;-59
2023/10/04 12:49:26;;;;;;;12.13;2.40;;;;;;;;;;5093840;28;20043;-59
2023/10/04 12:51:52;;;;;;;12.60;3.20;;;;;;;;;;5085379;28;20123;-59
2023/10/04 12:54:23;;;;;;;11.18;3.00;;;;;;;;;;5090838;28;20165;-59
2023/10/04 12:56:51;;;;;;;8.60;2.33;;;;;;;;;;5090116;28;20360;-59
2023/10/04 12:59:19;;;;;;;12.25;2.65;;;;;;;;;;5093100;28;20055;-59
2023/10/04 13:01:45;;;;;;;11.75;2.28;;;;;;;;;;5093666;28;20135;-59
2023/10/04 13:04:12;;;;;;;14.82;2.95;;;;;;;;;;5089895;28;20050;-59
2023/10/04 13:06:38;;;;;;;10.95;2.40;;;;;;;;;;5087734;28;20506;-59
2023/10/04 13:09:05;;;;;;;12.65;2.58;;;;;;;;;;5092160;28;20463;-67
2023/10/04 13:11:31;;;;;;;9.82;2.42;;;;;;;;;;5073242;28;20063;-59
2023/10/04 13:13:58;;;;;;;13.32;2.53;;;;;;;;;;5071993;28;20395;-59
2023/10/04 13:16:25;;;;;;;13.70;2.58;;;;;;;;;;5065141;28;20115;-59
2023/10/04 13:18:51;;;;;;;9.02;2.70;;;;;;;;;;5084122;28;20036;-59
2023/10/04 13:21:17;;;;;;;8.25;2.50;;;;;;;;;;5085130;28;20047;-59
2023/10/04 13:23:44;;;;;;;11.50;3.08;;;;;;;;;;5083122;28;20480;-59
2023/10/04 13:26:11;;;;;;;9.23;2.50;;;;;;;;;;5074812;28;20056;-60
2023/10/04 13:28:38;;;;;;;7.45;2.63;;;;;;;;;;5088268;28;20048;-60
2023/10/04 13:31:05;;;;;;;8.45;2.58;;;;;;;;;;5091766;28;20054;-60
2023/10/04 13:33:32;;;;;;;8.85;2.38;;;;;;;;;;5081207;28;20122;-60
2023/10/04 13:35:58;;;;;;;12.13;2.85;;;;;;;;;;5075638;28;20048;-60
2023/10/04 13:38:25;;;;;;;10.02;2.58;;;;;;;;;;5080982;28;20045;-60
2023/10/04 13:40:51;;;;;;;16.27;2.72;;;;;;;;;;5093185;28;20403;-60
2023/10/04 13:43:21;;;;;;;10.60;2.30;;;;;;;;;;5092483;28;20048;-60
2023/10/04 13:45:52;;;;;;;11.90;2.85;;;;;;;;;;5072268;28;20463;-60
2023/10/04 13:48:19;;;;;;;13.68;2.75;;;;;;;;;;5065521;28;20055;-61
2023/10/04 13:50:47;;;;;;;10.55;2.60;;;;;;;;;;5066700;28;20040;-60
2023/10/04 13:53:17;;;;;;;8.88;2.53;;;;;;;;;;5063489;28;20496;-60
2023/10/04 13:55:44;;;;;;;10.02;2.30;;;;;;;;;;5069432;28;20044;-60
2023/10/04 13:58:12;;;;;;;14.18;2.70;;;;;;;;;;5072384;28;20409;-59
2023/10/04 14:00:45;;;;;;;11.10;2.70;;;;;;;;;;5071946;28;20500;-59
2023/10/04 14:03:12;;;;;;;10.98;2.67;;;;;;;;;;5070523;28;20455;-60
2023/10/04 14:05:38;;;;;;;11.80;2.80;;;;;;;;;;5071329;28;20134;-59
2023/10/04 14:08:08;;;;;;;11.23;3.17;;;;;;;;;;5072263;28;20040;-60
2023/10/04 14:10:34;;;;;;;7.40;1.67;;;;;;;;;;5071775;28;20045;-60
2023/10/04 14:13:01;;;;;;;8.57;2.00;;;;;;;;;;5069867;28;20079;-60
2023/10/04 14:15:28;;;;;;;7.50;2.28;;;;;;;;;;5071966;28;20173;-60
2023/10/04 14:17:55;;;;;;;9.35;2.45;;;;;;;;;;5071365;28;20499;-60
2023/10/04 14:20:21;;;;;;;13.80;2.63;;;;;;;;;;5071415;28;20472;-60
2023/10/04 14:22:48;;;;;;;6.78;1.70;;;;;;;;;;5070480;28;20419;-60
2023/10/04 14:25:15;;;;;;;8.18;1.70;;;;;;;;;;5076107;28;20063;-60
2023/10/04 14:27:43;;;;;;;8.70;2.03;;;;;;;;;;5091588;28;20079;-60
2023/10/04 14:30:12;;;;;;;6.95;2.22;;;;;;;;;;5091896;28;20044;-60
2023/10/04 14:32:39;;;;;;;10.70;2.03;;;;;;;;;;5080558;28;20994;-60
2023/10/04 14:35:08;;;;;;;10.70;2.20;;;;;;;;;;5073564;28;20413;-60
2023/10/04 14:37:35;;;;;;;8.77;1.95;;;;;;;;;;5091829;28;20055;-60
2023/10/04 14:40:05;;;;;;;6.18;1.33;;;;;;;;;;5091218;28;20058;-60
2023/10/04 14:42:32;;;;;;;9.13;1.67;;;;;;;;;;5082479;28;20057;-60